sensor_id;sensor_type;location;lat;lon;timestamp;pressure;altitude;pressure_sealevel;temperature
82400;BMP280;72039;48.812;8.198;2024-02-21T00:02:23;101482.28;;;9.39
82400;BMP280;72039;48.812;8.198;2024-02-21T00:08:12;101475.44;;;9.40
82400;BMP280;72039;48.812;8.198;2024-02-21T00:14:02;101464.50;;;9.42
82400;BMP280;72039;48.812;8.198;2024-02-21T00:26:33;101461.59;;;9.40
82400;BMP280;72039;48.812;8.198;2024-02-21T00:32:25;101444.81;;;9.38
82400;BMP280;72039;48.812;8.198;2024-02-21T00:38:14;101432.28;;;9.37
82400;BMP280;72039;48.812;8.198;2024-02-21T00:44:00;101428.34;;;9.40
82400;BMP280;72039;48.812;8.198;2024-02-21T00:49:52;101419.88;;;9.38
82400;BMP280;72039;48.812;8.198;2024-02-21T00:59:06;101415.38;;;9.33
82400;BMP280;72039;48.812;8.198;2024-02-21T01:14:58;101378.03;;;9.34
82400;BMP280;72039;48.812;8.198;2024-02-21T01:20:45;101379.34;;;9.33
82400;BMP280;72039;48.812;8.198;2024-02-21T01:36:24;101333.16;;;9.26
82400;BMP280;72039;48.812;8.198;2024-02-21T01:42:13;101317.97;;;9.27
82400;BMP280;72039;48.812;8.198;2024-02-21T01:48:05;101300.19;;;9.20
82400;BMP280;72039;48.812;8.198;2024-02-21T01:53:55;101312.72;;;9.11
82400;BMP280;72039;48.812;8.198;2024-02-21T01:59:42;101315.50;;;9.01
82400;BMP280;72039;48.812;8.198;2024-02-21T02:05:29;101315.22;;;8.97
82400;BMP280;72039;48.812;8.198;2024-02-21T02:11:18;101301.38;;;8.97
82400;BMP280;72039;48.812;8.198;2024-02-21T02:17:06;101302.38;;;9.02
82400;BMP280;72039;48.812;8.198;2024-02-21T02:22:54;101298.16;;;9.01
82400;BMP280;72039;48.812;8.198;2024-02-21T02:28:43;101305.16;;;9.02
82400;BMP280;72039;48.812;8.198;2024-02-21T02:34:31;101288.69;;;8.94
82400;BMP280;72039;48.812;8.198;2024-02-21T02:50:09;101261.75;;;8.75
82400;BMP280;72039;48.812;8.198;2024-02-21T02:55:57;101255.34;;;8.73
82400;BMP280;72039;48.812;8.198;2024-02-21T03:01:44;101240.50;;;8.68
82400;BMP280;72039;48.812;8.198;2024-02-21T03:07:31;101230.56;;;8.65
82400;BMP280;72039;48.812;8.198;2024-02-21T03:13:18;101226.63;;;8.59
82400;BMP280;72039;48.812;8.198;2024-02-21T03:19:08;101208.44;;;8.46
82400;BMP280;72039;48.812;8.198;2024-02-21T03:24:57;101206.06;;;8.42
82400;BMP280;72039;48.812;8.198;2024-02-21T03:30:44;101199.81;;;8.32
82400;BMP280;72039;48.812;8.198;2024-02-21T03:36:34;101190.50;;;8.27
82400;BMP280;72039;48.812;8.198;2024-02-21T03:42:23;101182.34;;;8.29
82400;BMP280;72039;48.812;8.198;2024-02-21T03:48:12;101186.00;;;8.22
82400;BMP280;72039;48.812;8.198;2024-02-21T04:03:59;101188.00;;;8.12
82400;BMP280;72039;48.812;8.198;2024-02-21T04:09:46;101211.84;;;8.07
82400;BMP280;72039;48.812;8.198;2024-02-21T04:15:33;101213.31;;;7.99
82400;BMP280;72039;48.812;8.198;2024-02-21T04:21:25;101211.53;;;7.94
82400;BMP280;72039;48.812;8.198;2024-02-21T04:27:12;101190.25;;;7.86
82400;BMP280;72039;48.812;8.198;2024-02-21T04:32:59;101182.56;;;7.85
82400;BMP280;72039;48.812;8.198;2024-02-21T04:38:45;101179.34;;;7.79
82400;BMP280;72039;48.812;8.198;2024-02-21T04:44:35;101176.41;;;7.67
82400;BMP280;72039;48.812;8.198;2024-02-21T04:50:22;101183.75;;;7.55
82400;BMP280;72039;48.812;8.198;2024-02-21T04:59:33;101159.44;;;7.44
82400;BMP280;72039;48.812;8.198;2024-02-21T05:05:21;101138.47;;;7.40
82400;BMP280;72039;48.812;8.198;2024-02-21T05:11:08;101133.25;;;7.35
82400;BMP280;72039;48.812;8.198;2024-02-21T05:16:55;101114.31;;;7.31
82400;BMP280;72039;48.812;8.198;2024-02-21T05:22:42;101112.69;;;7.28
82400;BMP280;72039;48.812;8.198;2024-02-21T05:28:29;101113.56;;;7.21
82400;BMP280;72039;48.812;8.198;2024-02-21T05:34:21;101117.31;;;7.16
82400;BMP280;72039;48.812;8.198;2024-02-21T05:40:09;101105.06;;;7.09
82400;BMP280;72039;48.812;8.198;2024-02-21T05:45:59;101110.09;;;7.03
82400;BMP280;72039;48.812;8.198;2024-02-21T05:51:48;101113.16;;;6.97
82400;BMP280;72039;48.812;8.198;2024-02-21T06:07:39;101094.97;;;6.94
82400;BMP280;72039;48.812;8.198;2024-02-21T06:13:26;101096.09;;;6.91
82400;BMP280;72039;48.812;8.198;2024-02-21T06:19:13;101090.28;;;6.87
82400;BMP280;72039;48.812;8.198;2024-02-21T06:25:01;101075.34;;;6.90
82400;BMP280;72039;48.812;8.198;2024-02-21T06:30:49;101072.72;;;6.92
82400;BMP280;72039;48.812;8.198;2024-02-21T06:36:38;101066.78;;;6.96
82400;BMP280;72039;48.812;8.198;2024-02-21T06:42:25;101049.84;;;7.00
82400;BMP280;72039;48.812;8.198;2024-02-21T06:48:24;101058.69;;;6.98
82400;BMP280;72039;48.812;8.198;2024-02-21T06:54:11;101048.38;;;6.99
82400;BMP280;72039;48.812;8.198;2024-02-21T07:00:00;101039.53;;;7.00
82400;BMP280;72039;48.812;8.198;2024-02-21T07:05:47;101046.06;;;7.05
82400;BMP280;72039;48.812;8.198;2024-02-21T07:11:37;101045.63;;;7.08
82400;BMP280;72039;48.812;8.198;2024-02-21T07:17:26;101044.19;;;7.07
82400;BMP280;72039;48.812;8.198;2024-02-21T07:23:13;101030.56;;;7.19
82400;BMP280;72039;48.812;8.198;2024-02-21T07:29:00;101039.75;;;7.31
82400;BMP280;72039;48.812;8.198;2024-02-21T07:34:48;101026.88;;;7.44
82400;BMP280;72039;48.812;8.198;2024-02-21T07:40:35;101026.00;;;7.51
82400;BMP280;72039;48.812;8.198;2024-02-21T07:46:22;101033.44;;;7.58
82400;BMP280;72039;48.812;8.198;2024-02-21T07:52:11;101026.47;;;7.67
82400;BMP280;72039;48.812;8.198;2024-02-21T07:58:01;101027.75;;;7.75
82400;BMP280;72039;48.812;8.198;2024-02-21T08:03:48;101019.22;;;7.81
82400;BMP280;72039;48.812;8.198;2024-02-21T08:12:04;101003.50;;;8.03
82400;BMP280;72039;48.812;8.198;2024-02-21T08:14:30;101003.34;;;8.10
82400;BMP280;72039;48.812;8.198;2024-02-21T08:17:00;100993.47;;;8.17
82400;BMP280;72039;48.812;8.198;2024-02-21T08:19:26;100990.53;;;8.25
82400;BMP280;72039;48.812;8.198;2024-02-21T08:21:55;100984.25;;;8.34
82400;BMP280;72039;48.812;8.198;2024-02-21T08:24:23;100994.41;;;8.41
82400;BMP280;72039;48.812;8.198;2024-02-21T08:26:48;100980.41;;;8.49
82400;BMP280;72039;48.812;8.198;2024-02-21T08:29:20;100970.50;;;8.55
82400;BMP280;72039;48.812;8.198;2024-02-21T08:31:46;100974.97;;;8.61
82400;BMP280;72039;48.812;8.198;2024-02-21T08:34:11;100974.81;;;8.68
82400;BMP280;72039;48.812;8.198;2024-02-21T08:36:40;100958.75;;;8.76
82400;BMP280;72039;48.812;8.198;2024-02-21T08:39:05;100970.38;;;8.85
82400;BMP280;72039;48.812;8.198;2024-02-21T08:41:33;100972.94;;;8.92
82400;BMP280;72039;48.812;8.198;2024-02-21T08:44:02;100968.66;;;9.01
82400;BMP280;72039;48.812;8.198;2024-02-21T08:46:31;100967.88;;;9.10
82400;BMP280;72039;48.812;8.198;2024-02-21T08:48:56;100959.25;;;9.16
82400;BMP280;72039;48.812;8.198;2024-02-21T08:51:24;100961.09;;;9.23
82400;BMP280;72039;48.812;8.198;2024-02-21T08:53:52;100957.53;;;9.32
82400;BMP280;72039;48.812;8.198;2024-02-21T08:56:21;100960.69;;;9.38
82400;BMP280;72039;48.812;8.198;2024-02-21T08:58:49;101179.50;;;9.41
82400;BMP280;72039;48.812;8.198;2024-02-21T09:01:14;100958.34;;;9.44
82400;BMP280;72039;48.812;8.198;2024-02-21T09:03:40;100951.00;;;9.49
82400;BMP280;72039;48.812;8.198;2024-02-21T09:06:12;100954.16;;;9.55
82400;BMP280;72039;48.812;8.198;2024-02-21T09:08:41;100953.22;;;9.62
82400;BMP280;72039;48.812;8.198;2024-02-21T09:11:07;100958.19;;;9.69
82400;BMP280;72039;48.812;8.198;2024-02-21T09:13:32;100958.09;;;9.74
82400;BMP280;72039;48.812;8.198;2024-02-21T09:15:58;100956.28;;;9.78
82400;BMP280;72039;48.812;8.198;2024-02-21T09:18:25;100950.41;;;9.84
82400;BMP280;72039;48.812;8.198;2024-02-21T09:20:53;100939.56;;;9.88
82400;BMP280;72039;48.812;8.198;2024-02-21T09:23:24;100932.84;;;9.91
82400;BMP280;72039;48.812;8.198;2024-02-21T09:25:54;100936.69;;;9.98
82400;BMP280;72039;48.812;8.198;2024-02-21T09:28:22;100923.31;;;10.06
82400;BMP280;72039;48.812;8.198;2024-02-21T09:30:47;100930.94;;;10.17
82400;BMP280;72039;48.812;8.198;2024-02-21T09:33:13;100923.94;;;10.28
82400;BMP280;72039;48.812;8.198;2024-02-21T09:35:41;100920.94;;;10.47
82400;BMP280;72039;48.812;8.198;2024-02-21T09:38:11;100910.31;;;10.67
82400;BMP280;72039;48.812;8.198;2024-02-21T09:40:39;100908.94;;;10.80
82400;BMP280;72039;48.812;8.198;2024-02-21T09:43:07;100900.00;;;10.81
82400;BMP280;72039;48.812;8.198;2024-02-21T09:45:35;100913.53;;;10.75
82400;BMP280;72039;48.812;8.198;2024-02-21T09:51:11;100901.25;;;10.67
82400;BMP280;72039;48.812;8.198;2024-02-21T09:53:45;100897.16;;;10.68
82400;BMP280;72039;48.812;8.198;2024-02-21T09:56:15;100897.88;;;10.68
82400;BMP280;72039;48.812;8.198;2024-02-21T09:58:41;100894.47;;;10.70
82400;BMP280;72039;48.812;8.198;2024-02-21T10:01:06;100896.03;;;10.73
82400;BMP280;72039;48.812;8.198;2024-02-21T10:03:37;100890.03;;;10.76
82400;BMP280;72039;48.812;8.198;2024-02-21T10:06:02;100879.97;;;10.83
82400;BMP280;72039;48.812;8.198;2024-02-21T10:08:28;100881.63;;;10.88
82400;BMP280;72039;48.812;8.198;2024-02-21T10:10:55;100873.66;;;10.94
82400;BMP280;72039;48.812;8.198;2024-02-21T10:13:30;100872.78;;;11.03
82400;BMP280;72039;48.812;8.198;2024-02-21T10:16:10;100870.31;;;11.09
82400;BMP280;72039;48.812;8.198;2024-02-21T10:18:35;100862.34;;;11.16
82400;BMP280;72039;48.812;8.198;2024-02-21T10:21:06;100853.53;;;11.19
82400;BMP280;72039;48.812;8.198;2024-02-21T10:23:49;100857.31;;;11.26
82400;BMP280;72039;48.812;8.198;2024-02-21T10:26:16;100846.06;;;11.36
82400;BMP280;72039;48.812;8.198;2024-02-21T10:28:42;100847.31;;;11.46
82400;BMP280;72039;48.812;8.198;2024-02-21T10:31:22;100846.44;;;11.55
82400;BMP280;72039;48.812;8.198;2024-02-21T10:33:59;100848.06;;;11.61
82400;BMP280;72039;48.812;8.198;2024-02-21T10:36:25;100839.34;;;11.66
82400;BMP280;72039;48.812;8.198;2024-02-21T10:38:54;100840.19;;;11.69
82400;BMP280;72039;48.812;8.198;2024-02-21T10:41:24;100836.88;;;11.72
82400;BMP280;72039;48.812;8.198;2024-02-21T10:44:03;100832.88;;;11.75
82400;BMP280;72039;48.812;8.198;2024-02-21T10:46:30;100826.28;;;11.82
82400;BMP280;72039;48.812;8.198;2024-02-21T10:49:20;100831.66;;;11.92
82400;BMP280;72039;48.812;8.198;2024-02-21T10:51:47;100818.97;;;12.03
82400;BMP280;72039;48.812;8.198;2024-02-21T10:56:39;100801.13;;;12.22
82400;BMP280;72039;48.812;8.198;2024-02-21T10:59:07;100791.38;;;12.21
82400;BMP280;72039;48.812;8.198;2024-02-21T11:01:35;100790.00;;;12.22
82400;BMP280;72039;48.812;8.198;2024-02-21T11:04:11;100787.44;;;12.26
82400;BMP280;72039;48.812;8.198;2024-02-21T11:06:41;100788.75;;;12.25
82400;BMP280;72039;48.812;8.198;2024-02-21T11:09:08;100780.31;;;12.23
82400;BMP280;72039;48.812;8.198;2024-02-21T11:11:41;100778.78;;;12.20
82400;BMP280;72039;48.812;8.198;2024-02-21T11:16:45;100766.00;;;12.15
82400;BMP280;72039;48.812;8.198;2024-02-21T11:19:25;100756.25;;;12.14
82400;BMP280;72039;48.812;8.198;2024-02-21T11:21:52;100760.34;;;12.13
82400;BMP280;72039;48.812;8.198;2024-02-21T11:24:33;100754.88;;;12.15
82400;BMP280;72039;48.812;8.198;2024-02-21T11:27:08;100750.72;;;12.16
82400;BMP280;72039;48.812;8.198;2024-02-21T11:32:15;100741.19;;;12.19
82400;BMP280;72039;48.812;8.198;2024-02-21T11:34:41;100731.56;;;12.22
82400;BMP280;72039;48.812;8.198;2024-02-21T11:37:20;100723.84;;;12.20
82400;BMP280;72039;48.812;8.198;2024-02-21T11:39:45;100716.72;;;12.17
82400;BMP280;72039;48.812;8.198;2024-02-21T11:42:14;100709.09;;;12.18
82400;BMP280;72039;48.812;8.198;2024-02-21T11:44:41;100706.50;;;12.22
82400;BMP280;72039;48.812;8.198;2024-02-21T11:47:08;100701.16;;;12.26
82400;BMP280;72039;48.812;8.198;2024-02-21T11:49:47;100692.25;;;12.29
82400;BMP280;72039;48.812;8.198;2024-02-21T11:52:19;100691.75;;;12.33
82400;BMP280;72039;48.812;8.198;2024-02-21T11:54:46;100687.81;;;12.38
82400;BMP280;72039;48.812;8.198;2024-02-21T11:57:14;100678.25;;;12.41
82400;BMP280;72039;48.812;8.198;2024-02-21T11:59:40;100678.28;;;12.43
82400;BMP280;72039;48.812;8.198;2024-02-21T12:02:08;100669.88;;;12.41
82400;BMP280;72039;48.812;8.198;2024-02-21T12:04:33;100671.22;;;12.40
82400;BMP280;72039;48.812;8.198;2024-02-21T12:07:01;100661.44;;;12.39
82400;BMP280;72039;48.812;8.198;2024-02-21T12:09:30;100664.13;;;12.37
82400;BMP280;72039;48.812;8.198;2024-02-21T12:12:01;100647.34;;;12.35
82400;BMP280;72039;48.812;8.198;2024-02-21T12:14:31;100648.72;;;12.36
82400;BMP280;72039;48.812;8.198;2024-02-21T12:16:58;100644.44;;;12.33
82400;BMP280;72039;48.812;8.198;2024-02-21T12:19:28;100648.66;;;12.34
82400;BMP280;72039;48.812;8.198;2024-02-21T12:21:54;100634.75;;;12.34
82400;BMP280;72039;48.812;8.198;2024-02-21T12:24:27;100637.00;;;12.38
82400;BMP280;72039;48.812;8.198;2024-02-21T12:26:53;100634.31;;;12.40
82400;BMP280;72039;48.812;8.198;2024-02-21T12:29:25;100633.06;;;12.43
82400;BMP280;72039;48.812;8.198;2024-02-21T12:31:51;100631.81;;;12.46
82400;BMP280;72039;48.812;8.198;2024-02-21T12:36:47;100618.34;;;12.40
82400;BMP280;72039;48.812;8.198;2024-02-21T12:39:15;100606.47;;;12.40
82400;BMP280;72039;48.812;8.198;2024-02-21T12:41:44;100605.75;;;12.39
82400;BMP280;72039;48.812;8.198;2024-02-21T12:44:12;100604.41;;;12.40
82400;BMP280;72039;48.812;8.198;2024-02-21T12:46:40;100600.19;;;12.39
82400;BMP280;72039;48.812;8.198;2024-02-21T12:49:06;100595.34;;;12.40
82400;BMP280;72039;48.812;8.198;2024-02-21T12:51:33;100597.53;;;12.41
82400;BMP280;72039;48.812;8.198;2024-02-21T12:54:01;100572.38;;;12.39
82400;BMP280;72039;48.812;8.198;2024-02-21T12:56:36;100566.81;;;12.39
82400;BMP280;72039;48.812;8.198;2024-02-21T12:59:06;100557.63;;;12.37
82400;BMP280;72039;48.812;8.198;2024-02-21T13:01:35;100572.09;;;12.33
82400;BMP280;72039;48.812;8.198;2024-02-21T13:04:03;100558.78;;;12.32
82400;BMP280;72039;48.812;8.198;2024-02-21T13:06:31;100553.97;;;12.32
82400;BMP280;72039;48.812;8.198;2024-02-21T13:08:59;100551.25;;;12.34
82400;BMP280;72039;48.812;8.198;2024-02-21T13:11:29;100535.28;;;12.35
82400;BMP280;72039;48.812;8.198;2024-02-21T13:14:02;100533.03;;;12.31
82400;BMP280;72039;48.812;8.198;2024-02-21T13:16:29;100528.72;;;12.28
82400;BMP280;72039;48.812;8.198;2024-02-21T13:18:54;100525.25;;;12.27
82400;BMP280;72039;48.812;8.198;2024-02-21T13:21:20;100507.00;;;12.24
82400;BMP280;72039;48.812;8.198;2024-02-21T13:23:45;100498.53;;;12.22
82400;BMP280;72039;48.812;8.198;2024-02-21T13:26:11;100497.75;;;12.20
82400;BMP280;72039;48.812;8.198;2024-02-21T13:28:37;100499.09;;;12.19
82400;BMP280;72039;48.812;8.198;2024-02-21T13:31:09;100499.00;;;12.17
82400;BMP280;72039;48.812;8.198;2024-02-21T13:33:34;100492.72;;;12.16
82400;BMP280;72039;48.812;8.198;2024-02-21T13:36:01;100478.81;;;12.16
82400;BMP280;72039;48.812;8.198;2024-02-21T13:38:31;100476.13;;;12.18
82400;BMP280;72039;48.812;8.198;2024-02-21T13:40:58;100469.22;;;12.19
82400;BMP280;72039;48.812;8.198;2024-02-21T13:43:26;100470.00;;;12.22
82400;BMP280;72039;48.812;8.198;2024-02-21T13:45:59;100461.66;;;12.22
82400;BMP280;72039;48.812;8.198;2024-02-21T13:48:25;100454.69;;;12.21
82400;BMP280;72039;48.812;8.198;2024-02-21T13:50:52;100450.44;;;12.20
82400;BMP280;72039;48.812;8.198;2024-02-21T13:53:19;100443.56;;;12.21
82400;BMP280;72039;48.812;8.198;2024-02-21T13:55:45;100447.75;;;12.22
82400;BMP280;72039;48.812;8.198;2024-02-21T13:58:12;100436.53;;;12.20
82400;BMP280;72039;48.812;8.198;2024-02-21T14:00:40;100441.50;;;12.21
82400;BMP280;72039;48.812;8.198;2024-02-21T14:03:05;100413.09;;;12.25
82400;BMP280;72039;48.812;8.198;2024-02-21T14:05:31;100411.16;;;12.27
82400;BMP280;72039;48.812;8.198;2024-02-21T14:07:56;100411.16;;;12.27
82400;BMP280;72039;48.812;8.198;2024-02-21T14:10:24;100401.44;;;12.28
82400;BMP280;72039;48.812;8.198;2024-02-21T14:12:49;100395.25;;;12.30
82400;BMP280;72039;48.812;8.198;2024-02-21T14:15:15;100395.34;;;12.32
82400;BMP280;72039;48.812;8.198;2024-02-21T14:17:42;100384.19;;;12.32
82400;BMP280;72039;48.812;8.198;2024-02-21T14:20:07;100375.69;;;12.28
82400;BMP280;72039;48.812;8.198;2024-02-21T14:22:33;100383.13;;;12.23
82400;BMP280;72039;48.812;8.198;2024-02-21T14:25:00;100374.16;;;12.25
82400;BMP280;72039;48.812;8.198;2024-02-21T14:27:32;100367.06;;;12.22
82400;BMP280;72039;48.812;8.198;2024-02-21T14:29:58;100351.16;;;12.24
82400;BMP280;72039;48.812;8.198;2024-02-21T14:32:24;100338.72;;;12.25
82400;BMP280;72039;48.812;8.198;2024-02-21T14:34:52;100344.28;;;12.25
82400;BMP280;72039;48.812;8.198;2024-02-21T14:37:22;100332.50;;;12.27
82400;BMP280;72039;48.812;8.198;2024-02-21T14:39:47;100324.06;;;12.25
82400;BMP280;72039;48.812;8.198;2024-02-21T14:42:13;100312.94;;;12.25
82400;BMP280;72039;48.812;8.198;2024-02-21T14:44:41;100324.06;;;12.25
82400;BMP280;72039;48.812;8.198;2024-02-21T14:47:06;100328.09;;;12.22
82400;BMP280;72039;48.812;8.198;2024-02-21T14:49:34;100328.19;;;12.24
82400;BMP280;72039;48.812;8.198;2024-02-21T14:52:00;100322.63;;;12.24
82400;BMP280;72039;48.812;8.198;2024-02-21T14:54:29;100322.03;;;12.25
82400;BMP280;72039;48.812;8.198;2024-02-21T14:56:54;100308.09;;;12.25
82400;BMP280;72039;48.812;8.198;2024-02-21T14:59:21;100326.13;;;12.24
82400;BMP280;72039;48.812;8.198;2024-02-21T15:01:46;100317.06;;;12.24
82400;BMP280;72039;48.812;8.198;2024-02-21T15:04:12;100313.56;;;12.23
82400;BMP280;72039;48.812;8.198;2024-02-21T15:17:12;100270.97;;;12.19
82400;BMP280;72039;48.812;8.198;2024-02-21T15:19:41;100284.78;;;12.17
82400;BMP280;72039;48.812;8.198;2024-02-21T15:22:13;100279.75;;;12.13
82400;BMP280;72039;48.812;8.198;2024-02-21T15:24:41;100268.53;;;12.11
82400;BMP280;72039;48.812;8.198;2024-02-21T15:27:13;100250.44;;;12.10
82400;BMP280;72039;48.812;8.198;2024-02-21T15:29:44;100233.66;;;12.08
82400;BMP280;72039;48.812;8.198;2024-02-21T15:32:10;100219.03;;;12.08
82400;BMP280;72039;48.812;8.198;2024-02-21T15:34:35;100202.28;;;12.05
82400;BMP280;72039;48.812;8.198;2024-02-21T15:37:04;100187.56;;;12.03
82400;BMP280;72039;48.812;8.198;2024-02-21T15:42:07;100194.41;;;12.00
82400;BMP280;72039;48.812;8.198;2024-02-21T15:44:34;100191.63;;;12.00
82400;BMP280;72039;48.812;8.198;2024-02-21T15:47:01;100179.69;;;11.97
82400;BMP280;72039;48.812;8.198;2024-02-21T15:49:26;100170.63;;;11.97
82400;BMP280;72039;48.812;8.198;2024-02-21T15:51:52;100158.69;;;11.94
82400;BMP280;72039;48.812;8.198;2024-02-21T15:54:23;100163.53;;;11.94
82400;BMP280;72039;48.812;8.198;2024-02-21T15:56:52;100194.78;;;11.92
82400;BMP280;72039;48.812;8.198;2024-02-21T15:59:18;100229.50;;;11.91
82400;BMP280;72039;48.812;8.198;2024-02-21T16:01:43;100218.28;;;11.89
82400;BMP280;72039;48.812;8.198;2024-02-21T16:04:11;100216.84;;;11.88
82400;BMP280;72039;48.812;8.198;2024-02-21T16:06:39;100208.50;;;11.88
82400;BMP280;72039;48.812;8.198;2024-02-21T16:09:10;100211.91;;;11.87
82400;BMP280;72039;48.812;8.198;2024-02-21T16:11:38;100211.19;;;11.86
82400;BMP280;72039;48.812;8.198;2024-02-21T16:14:03;100192.38;;;11.85
82400;BMP280;72039;48.812;8.198;2024-02-21T16:16:33;100174.91;;;11.82
82400;BMP280;72039;48.812;8.198;2024-02-21T16:18:58;100168.63;;;11.81
82400;BMP280;72039;48.812;8.198;2024-02-21T16:21:24;100152.56;;;11.80
82400;BMP280;72039;48.812;8.198;2024-02-21T16:23:55;100162.91;;;11.77
82400;BMP280;72039;48.812;8.198;2024-02-21T16:26:23;100161.34;;;11.74
82400;BMP280;72039;48.812;8.198;2024-02-21T16:28:51;100177.31;;;11.74
82400;BMP280;72039;48.812;8.198;2024-02-21T16:31:16;100150.19;;;11.72
82400;BMP280;72039;48.812;8.198;2024-02-21T16:33:42;100159.13;;;11.71
82400;BMP280;72039;48.812;8.198;2024-02-21T16:36:07;100162.56;;;11.69
82400;BMP280;72039;48.812;8.198;2024-02-21T16:38:36;100159.69;;;11.67
82400;BMP280;72039;48.812;8.198;2024-02-21T16:41:05;100155.31;;;11.62
82400;BMP280;72039;48.812;8.198;2024-02-21T16:43:30;100134.44;;;11.61
82400;BMP280;72039;48.812;8.198;2024-02-21T16:45:58;100141.97;;;11.58
82400;BMP280;72039;48.812;8.198;2024-02-21T16:48:23;100133.53;;;11.56
82400;BMP280;72039;48.812;8.198;2024-02-21T16:50:49;100125.84;;;11.55
82400;BMP280;72039;48.812;8.198;2024-02-21T16:53:14;100125.13;;;11.54
82400;BMP280;72039;48.812;8.198;2024-02-21T16:55:40;100133.47;;;11.54
82400;BMP280;72039;48.812;8.198;2024-02-21T16:58:07;100140.34;;;11.53
82400;BMP280;72039;48.812;8.198;2024-02-21T17:00:33;100136.84;;;11.53
82400;BMP280;72039;48.812;8.198;2024-02-21T17:02:58;100128.53;;;11.53
82400;BMP280;72039;48.812;8.198;2024-02-21T17:05:24;100120.81;;;11.51
82400;BMP280;72039;48.812;8.198;2024-02-21T17:07:52;100133.28;;;11.50
82400;BMP280;72039;48.812;8.198;2024-02-21T17:10:19;100113.09;;;11.50
82400;BMP280;72039;48.812;8.198;2024-02-21T17:12:47;100119.38;;;11.50
82400;BMP280;72039;48.812;8.198;2024-02-21T17:15:14;100102.72;;;11.50
82400;BMP280;72039;48.812;8.198;2024-02-21T17:17:42;100105.38;;;11.48
82400;BMP280;72039;48.812;8.198;2024-02-21T17:20:18;100099.84;;;11.48
82400;BMP280;72039;48.812;8.198;2024-02-21T17:22:44;100095.66;;;11.47
82400;BMP280;72039;48.812;8.198;2024-02-21T17:25:12;100086.66;;;11.49
82400;BMP280;72039;48.812;8.198;2024-02-21T17:27:37;100081.84;;;11.49
82400;BMP280;72039;48.812;8.198;2024-02-21T17:30:04;100066.50;;;11.48
82400;BMP280;72039;48.812;8.198;2024-02-21T17:32:33;100065.78;;;11.48
82400;BMP280;72039;48.812;8.198;2024-02-21T17:34:59;100053.97;;;11.47
82400;BMP280;72039;48.812;8.198;2024-02-21T17:37:25;100058.09;;;11.46
82400;BMP280;72039;48.812;8.198;2024-02-21T17:39:50;100064.91;;;11.43
82400;BMP280;72039;48.812;8.198;2024-02-21T17:42:15;100059.25;;;11.41
82400;BMP280;72039;48.812;8.198;2024-02-21T17:44:41;100062.59;;;11.38
82400;BMP280;72039;48.812;8.198;2024-02-21T17:47:11;100074.25;;;11.34
82400;BMP280;72039;48.812;8.198;2024-02-21T17:49:41;100070.69;;;11.31
82400;BMP280;72039;48.812;8.198;2024-02-21T17:52:10;100064.41;;;11.31
82400;BMP280;72039;48.812;8.198;2024-02-21T17:54:38;100056.69;;;11.29
82400;BMP280;72039;48.812;8.198;2024-02-21T17:57:06;100044.06;;;11.26
82400;BMP280;72039;48.812;8.198;2024-02-21T17:59:32;100044.00;;;11.24
82400;BMP280;72039;48.812;8.198;2024-02-21T18:02:00;100039.78;;;11.23
82400;BMP280;72039;48.812;8.198;2024-02-21T18:04:26;100034.88;;;11.22
82400;BMP280;72039;48.812;8.198;2024-02-21T18:06:51;100034.88;;;11.22
82400;BMP280;72039;48.812;8.198;2024-02-21T18:09:20;100032.72;;;11.20
82400;BMP280;72039;48.812;8.198;2024-02-21T18:11:45;100026.44;;;11.20
82400;BMP280;72039;48.812;8.198;2024-02-21T18:14:13;100020.78;;;11.18
82400;BMP280;72039;48.812;8.198;2024-02-21T18:16:39;100012.41;;;11.16
82400;BMP280;72039;48.812;8.198;2024-02-21T18:19:04;100008.19;;;11.15
82400;BMP280;72039;48.812;8.198;2024-02-21T18:21:32;100001.19;;;11.14
82400;BMP280;72039;48.812;8.198;2024-02-21T18:23:59;100008.72;;;11.11
82400;BMP280;72039;48.812;8.198;2024-02-21T18:26:24;99998.22;;;11.09
82400;BMP280;72039;48.812;8.198;2024-02-21T18:28:50;100001.56;;;11.06
82400;BMP280;72039;48.812;8.198;2024-02-21T18:31:18;99993.25;;;11.06
82400;BMP280;72039;48.812;8.198;2024-02-21T18:33:45;99984.22;;;11.05
82400;BMP280;72039;48.812;8.198;2024-02-21T18:36:11;99984.22;;;11.05
82400;BMP280;72039;48.812;8.198;2024-02-21T18:38:37;99978.66;;;11.05
82400;BMP280;72039;48.812;8.198;2024-02-21T18:41:03;99981.44;;;11.05
82400;BMP280;72039;48.812;8.198;2024-02-21T18:43:35;99970.94;;;11.04
82400;BMP280;72039;48.812;8.198;2024-02-21T18:46:02;99974.34;;;11.02
82400;BMP280;72039;48.812;8.198;2024-02-21T18:48:28;99976.34;;;11.00
82400;BMP280;72039;48.812;8.198;2024-02-21T18:50:55;99981.88;;;11.00
82400;BMP280;72039;48.812;8.198;2024-02-21T18:53:22;99980.38;;;10.97
82400;BMP280;72039;48.812;8.198;2024-02-21T18:55:48;99970.59;;;10.96
82400;BMP280;72039;48.812;8.198;2024-02-21T18:58:15;99968.47;;;10.94
82400;BMP280;72039;48.812;8.198;2024-02-21T19:00:41;99966.94;;;10.91
82400;BMP280;72039;48.812;8.198;2024-02-21T19:03:07;99975.28;;;10.91
82400;BMP280;72039;48.812;8.198;2024-02-21T19:05:32;99973.13;;;10.90
82400;BMP280;72039;48.812;8.198;2024-02-21T19:07:58;99964.72;;;10.87
82400;BMP280;72039;48.812;8.198;2024-02-21T19:10:44;99955.59;;;10.85
82400;BMP280;72039;48.812;8.198;2024-02-21T19:13:10;99956.94;;;10.84
82400;BMP280;72039;48.812;8.198;2024-02-21T19:15:36;99945.81;;;10.84
82400;BMP280;72039;48.812;8.198;2024-02-21T19:18:12;99960.41;;;10.84
82400;BMP280;72039;48.812;8.198;2024-02-21T19:20:38;99961.13;;;10.85
82400;BMP280;72039;48.812;8.198;2024-02-21T19:23:04;99954.22;;;10.86
82400;BMP280;72039;48.812;8.198;2024-02-21T19:25:31;99947.97;;;10.85
82400;BMP280;72039;48.812;8.198;2024-02-21T19:28:03;99943.06;;;10.84
82400;BMP280;72039;48.812;8.198;2024-02-21T19:30:28;99939.56;;;10.83
82400;BMP280;72039;48.812;8.198;2024-02-21T19:32:56;99941.63;;;10.83
82400;BMP280;72039;48.812;8.198;2024-02-21T19:35:23;99931.94;;;10.84
82400;BMP280;72039;48.812;8.198;2024-02-21T19:37:51;99938.94;;;10.85
82400;BMP280;72039;48.812;8.198;2024-02-21T19:40:17;99922.28;;;10.85
82400;BMP280;72039;48.812;8.198;2024-02-21T19:42:43;99924.97;;;10.83